Terminal Aerodrome Forecast
Issued by NWS

Home | Current Version | Previous Version | Text Only | Print | Product List | Glossary On
Versions: 1 2 3 4 5 6 7 8 9 10 11 12 13 14 15 16
821
FTUS41 KPBZ 090523
TAFMGW
TAF
KMGW 090523Z 0906/1006 21005KT 5SM -SHSN SCT008 BKN025
      TEMPO 0906/0908 3SM -SHSN SCT008 BKN015
     FM090800 29005KT 2SM -SN OVC008
     FM100000 30008KT P6SM BKN015=

USA.gov is the U.S. government's official web portal to all federal, state and local government web resources and services.